Terminal Aerodrome Forecast
Issued by NWS Wilmington, OH

Current Version | Previous Version | Graphics & Text | Print | Product List | Glossary On
Versions: 1 2 3 4 5 6 7 8 9 10 11 12 13 14 15 16 17 18 19 20 21 22 23 24 25
000
FTUS41 KILN 171631 AAB
TAFCVG
TAF AMD
KCVG 171631Z 1717/1818 17006KT 1 1/2SM -SN BR OVC015
     FM171800 17006KT 5SM -RA BR OVC008
     FM180200 21008KT P6SM OVC008
     FM180700 28006KT P6SM BKN015
     FM181400 12006KT P6SM SCT015=

USA.gov is the U.S. government's official web portal to all federal, state and local government web resources and services.